createdAt,value
2017-12-17T00:00:09.108Z,1004
2017-12-17T00:01:11.505Z,1004
2017-12-17T00:02:13.921Z,1004
2017-12-17T00:03:16.325Z,1004.1
2017-12-17T00:04:19.025Z,1004.1
2017-12-17T00:05:21.426Z,1004.1
2017-12-17T00:06:24.116Z,1004.1
2017-12-17T00:07:26.519Z,1004.1
2017-12-17T00:08:28.924Z,1004.1
2017-12-17T00:09:31.335Z,1004.1
2017-12-17T00:10:33.748Z,1004.1
2017-12-17T00:11:36.729Z,1004.1
2017-12-17T00:12:39.143Z,1004.2
2017-12-17T00:13:41.551Z,1004.2
2017-12-17T00:14:44.256Z,1004.2
2017-12-17T00:15:46.659Z,1004.2
2017-12-17T00:16:49.068Z,1004.1
2017-12-17T00:17:51.779Z,1004.1
2017-12-17T00:18:54.187Z,1004.1
2017-12-17T00:19:56.593Z,1004.1
2017-12-17T00:20:58.996Z,1004.1
2017-12-17T00:22:01.400Z,1004.1
2017-12-17T00:23:03.819Z,1004.1
2017-12-17T00:24:06.227Z,1004.1
2017-12-17T00:25:08.639Z,1004.1
2017-12-17T00:26:11.039Z,1004.1
2017-12-17T00:27:13.447Z,1004.1
2017-12-17T00:28:15.847Z,1004.1
2017-12-17T00:29:18.562Z,1004.1
2017-12-17T00:30:20.962Z,1004.1
2017-12-17T00:31:23.370Z,1004.1
2017-12-17T00:32:25.774Z,1004.1
2017-12-17T00:33:28.181Z,1004.1
2017-12-17T00:34:30.582Z,1004.1
2017-12-17T00:35:32.991Z,1004.1
2017-12-17T00:36:35.393Z,1004.1
2017-12-17T00:37:38.088Z,1004.1
2017-12-17T00:38:40.496Z,1004.1
2017-12-17T00:39:42.898Z,1004.1
2017-12-17T00:40:45.305Z,1004.1
2017-12-17T00:41:47.733Z,1004.1
2017-12-17T00:42:50.123Z,1004.1
2017-12-17T00:43:52.541Z,1004.2
2017-12-17T00:44:54.936Z,1004.2
2017-12-17T00:45:57.339Z,1004.2
2017-12-17T00:47:00.050Z,1004.2
2017-12-17T00:48:02.465Z,1004.2
2017-12-17T00:49:04.877Z,1004.2
2017-12-17T00:50:07.286Z,1004.2
2017-12-17T00:51:09.695Z,1004.2
2017-12-17T00:52:12.381Z,1004.2
2017-12-17T00:53:14.794Z,1004.3
2017-12-17T00:54:17.191Z,1004.3
2017-12-17T00:55:19.598Z,1004.3
2017-12-17T00:56:22.004Z,1004.3
2017-12-17T00:57:24.411Z,1004.3
2017-12-17T00:58:26.818Z,1004.3
2017-12-17T00:59:29.234Z,1004.3
2017-12-17T01:00:31.924Z,1004.3
2017-12-17T01:01:34.340Z,1004.4
2017-12-17T01:02:36.742Z,1004.3
2017-12-17T01:03:39.140Z,1004.4
2017-12-17T01:04:41.547Z,1004.4
2017-12-17T01:05:43.947Z,1004.5
2017-12-17T01:06:46.353Z,1004.5
2017-12-17T01:07:48.766Z,1004.5
2017-12-17T01:08:51.154Z,1004.5
2017-12-17T01:09:53.568Z,1004.5
2017-12-17T01:10:55.984Z,1004.5
2017-12-17T01:11:58.389Z,1004.6
2017-12-17T01:13:00.806Z,1004.6
2017-12-17T01:14:03.495Z,1004.6
2017-12-17T01:15:05.898Z,1004.6
2017-12-17T01:16:08.323Z,1004.7
2017-12-17T01:17:10.715Z,1004.6
2017-12-17T01:18:13.127Z,1004.6
2017-12-17T01:19:15.541Z,1004.7
2017-12-17T01:20:18.809Z,1004.6
2017-12-17T01:21:21.211Z,1004.6
2017-12-17T01:22:23.903Z,1004.6
2017-12-17T01:23:26.306Z,1004.7
2017-12-17T01:24:29.004Z,1004.7
2017-12-17T01:25:31.413Z,1004.7
2017-12-17T01:26:33.828Z,1004.7
2017-12-17T01:27:36.220Z,1004.7
2017-12-17T01:28:38.628Z,1004.8
2017-12-17T01:29:41.049Z,1004.8
2017-12-17T01:30:43.459Z,1004.7
2017-12-17T01:31:45.859Z,1004.8
2017-12-17T01:32:48.274Z,1004.8
2017-12-17T01:33:50.673Z,1004.9
2017-12-17T01:34:53.101Z,1004.8
2017-12-17T01:35:55.787Z,1004.9
2017-12-17T01:36:58.194Z,1004.9
2017-12-17T01:38:00.888Z,1004.9
2017-12-17T01:39:03.292Z,1004.9
2017-12-17T01:40:05.706Z,1004.9
2017-12-17T01:41:08.115Z,1004.9
2017-12-17T01:42:10.510Z,1004.9
2017-12-17T01:43:13.485Z,1004.9
2017-12-17T01:44:15.904Z,1005
2017-12-17T01:45:18.311Z,1004.9
2017-12-17T01:46:20.720Z,1004.9
2017-12-17T01:47:23.130Z,1005
2017-12-17T01:48:25.536Z,1005
2017-12-17T01:49:27.936Z,1005
2017-12-17T01:50:30.339Z,1005
2017-12-17T01:51:32.750Z,1005
2017-12-17T01:52:35.147Z,1005.1
2017-12-17T01:53:37.554Z,1005
2017-12-17T01:54:39.969Z,1005.1
2017-12-17T01:55:42.375Z,1005.1
2017-12-17T01:56:44.824Z,1005.1
2017-12-17T01:57:47.194Z,1005.2
2017-12-17T01:58:49.600Z,1005.2
2017-12-17T01:59:52.014Z,1005.2
2017-12-17T02:00:54.835Z,1005.2
2017-12-17T02:01:57.226Z,1005.2
2017-12-17T02:02:59.924Z,1005.2
2017-12-17T02:04:02.614Z,1005.2
2017-12-17T02:05:05.024Z,1005.2
2017-12-17T02:06:07.438Z,1005.1
2017-12-17T02:07:09.841Z,1005.2
2017-12-17T02:08:12.244Z,1005.2
2017-12-17T02:09:14.652Z,1005.2
2017-12-17T02:10:17.048Z,1005.2
2017-12-17T02:11:19.457Z,1005.2
2017-12-17T02:12:21.862Z,1005.2
2017-12-17T02:13:24.269Z,1005.2
2017-12-17T02:14:26.681Z,1005.2
2017-12-17T02:15:29.094Z,1005.2
2017-12-17T02:16:31.497Z,1005.2
2017-12-17T02:17:34.180Z,1005.3
2017-12-17T02:18:36.585Z,1005.3
2017-12-17T02:19:38.990Z,1005.3
2017-12-17T02:20:41.396Z,1005.3
2017-12-17T02:21:43.800Z,1005.3
2017-12-17T02:22:46.209Z,1005.3
2017-12-17T02:23:48.614Z,1005.3
2017-12-17T02:24:51.315Z,1005.3
2017-12-17T02:25:54.006Z,1005.4
2017-12-17T02:26:56.405Z,1005.3
2017-12-17T02:27:59.104Z,1005.4
2017-12-17T02:29:01.504Z,1005.4
2017-12-17T02:30:03.914Z,1005.4
2017-12-17T02:31:06.326Z,1005.4
2017-12-17T02:32:08.717Z,1005.4
2017-12-17T02:33:11.126Z,1005.4
2017-12-17T02:34:13.543Z,1005.4
2017-12-17T02:35:16.226Z,1005.5
2017-12-17T02:36:18.918Z,1005.4
2017-12-17T02:37:21.326Z,1005.4
2017-12-17T02:38:24.254Z,1005.4
2017-12-17T02:39:26.953Z,1005.5
2017-12-17T02:40:29.651Z,1005.5
2017-12-17T02:41:32.340Z,1005.5
2017-12-17T02:42:34.750Z,1005.4
2017-12-17T02:43:37.441Z,1005.4
2017-12-17T02:44:40.440Z,1005.5
2017-12-17T02:45:42.839Z,1005.4
2017-12-17T02:46:45.254Z,1005.4
2017-12-17T02:47:47.941Z,1005.5
2017-12-17T02:48:50.352Z,1005.5
2017-12-17T02:49:52.756Z,1005.4
2017-12-17T02:50:55.451Z,1005.5
2017-12-17T02:51:58.736Z,1005.5
2017-12-17T02:53:01.652Z,1005.5
2017-12-17T02:54:04.335Z,1005.5
2017-12-17T02:55:07.028Z,1005.5
2017-12-17T02:56:09.800Z,1005.5
2017-12-17T02:57:12.502Z,1005.5
2017-12-17T02:58:14.907Z,1005.5
2017-12-17T02:59:17.369Z,1005.5
2017-12-17T03:00:20.162Z,1005.6
2017-12-17T03:01:22.951Z,1005.6
2017-12-17T03:02:25.454Z,1005.6
2017-12-17T03:03:28.408Z,1005.6
2017-12-17T03:04:31.431Z,1005.6
2017-12-17T03:05:35.159Z,1005.6
2017-12-17T03:06:37.974Z,1005.6
2017-12-17T03:07:40.670Z,1005.6
2017-12-17T03:08:43.291Z,1005.7
2017-12-17T03:09:46.265Z,1005.7
2017-12-17T03:10:49.176Z,1005.7
2017-12-17T03:11:51.998Z,1005.7
2017-12-17T03:12:54.763Z,1005.7
2017-12-17T03:13:57.505Z,1005.7
2017-12-17T03:15:00.186Z,1005.7
2017-12-17T03:16:02.608Z,1005.8
2017-12-17T03:17:05.020Z,1005.7
2017-12-17T03:18:07.574Z,1005.7
2017-12-17T03:19:10.070Z,1005.7
2017-12-17T03:20:13.328Z,1005.8
2017-12-17T03:21:16.147Z,1005.7
2017-12-17T03:22:18.742Z,1005.7
2017-12-17T03:23:21.229Z,1005.8
2017-12-17T03:24:23.990Z,1005.7
2017-12-17T03:25:26.808Z,1005.7
2017-12-17T03:26:29.287Z,1005.7
2017-12-17T03:27:32.838Z,1005.8
2017-12-17T03:28:35.386Z,1005.8
2017-12-17T03:29:37.942Z,1005.8
2017-12-17T03:30:40.778Z,1005.8
2017-12-17T03:31:43.245Z,1005.7
2017-12-17T03:32:45.726Z,1005.7
2017-12-17T03:33:48.306Z,1005.8
2017-12-17T03:34:50.819Z,1005.8
2017-12-17T03:35:53.237Z,1005.8
2017-12-17T03:36:55.642Z,1005.8
2017-12-17T03:37:58.347Z,1005.8
2017-12-17T03:39:00.764Z,1005.8
2017-12-17T03:40:03.172Z,1005.9
2017-12-17T03:41:05.861Z,1005.8
2017-12-17T03:42:08.589Z,1005.8
2017-12-17T03:43:10.997Z,1005.8
2017-12-17T03:44:13.404Z,1005.8
2017-12-17T03:45:15.811Z,1005.8
2017-12-17T03:46:18.227Z,1005.8
2017-12-17T03:47:20.630Z,1005.8
2017-12-17T03:48:23.046Z,1005.8
2017-12-17T03:49:25.453Z,1005.8
2017-12-17T03:50:27.867Z,1005.8
2017-12-17T03:51:30.370Z,1005.8
2017-12-17T03:52:33.000Z,1005.8
2017-12-17T03:53:35.404Z,1005.9
2017-12-17T03:54:37.812Z,1005.9
2017-12-17T03:55:40.221Z,1005.9
2017-12-17T03:56:42.642Z,1006
2017-12-17T03:57:45.039Z,1006
2017-12-17T03:58:47.456Z,1005.9
2017-12-17T03:59:49.853Z,1005.9
2017-12-17T04:00:52.264Z,1006
2017-12-17T04:01:54.668Z,1006
2017-12-17T04:02:57.077Z,1006
2017-12-17T04:03:59.484Z,1006
2017-12-17T04:05:01.896Z,1006
2017-12-17T04:06:04.294Z,1006.1
2017-12-17T04:07:06.760Z,1006.1
2017-12-17T04:08:09.431Z,1006.1
2017-12-17T04:09:11.839Z,1006.1
2017-12-17T04:10:14.243Z,1006.1
2017-12-17T04:11:16.649Z,1006.1
2017-12-17T04:12:19.058Z,1006.1
2017-12-17T04:13:21.466Z,1006.2
2017-12-17T04:14:23.878Z,1006.1
2017-12-17T04:15:26.301Z,1006.2
2017-12-17T04:16:28.699Z,1006.1
2017-12-17T04:17:31.399Z,1006.2
2017-12-17T04:18:33.808Z,1006.1
2017-12-17T04:19:36.205Z,1006.1
2017-12-17T04:20:38.632Z,1006.2
2017-12-17T04:21:41.020Z,1006.2
2017-12-17T04:22:43.421Z,1006.2
2017-12-17T04:23:45.828Z,1006.2
2017-12-17T04:24:48.230Z,1006.3
2017-12-17T04:25:50.646Z,1006.3
2017-12-17T04:26:53.056Z,1006.2
2017-12-17T04:27:55.465Z,1006.3
2017-12-17T04:28:58.160Z,1006.3
2017-12-17T04:30:00.570Z,1006.4
2017-12-17T04:31:02.973Z,1006.3
2017-12-17T04:32:05.375Z,1006.4
2017-12-17T04:33:08.074Z,1006.4
2017-12-17T04:34:10.476Z,1006.4
2017-12-17T04:35:12.888Z,1006.4
2017-12-17T04:36:15.288Z,1006.5
2017-12-17T04:37:17.697Z,1006.5
2017-12-17T04:38:20.096Z,1006.4
2017-12-17T04:39:22.511Z,1006.4
2017-12-17T04:40:24.908Z,1006.4
2017-12-17T04:41:27.322Z,1006.4
2017-12-17T04:42:29.736Z,1006.5
2017-12-17T04:43:32.141Z,1006.5
2017-12-17T04:44:34.547Z,1006.4
2017-12-17T04:45:36.961Z,1006.4
2017-12-17T04:46:39.374Z,1006.4
2017-12-17T04:47:42.065Z,1006.4
2017-12-17T04:48:44.471Z,1006.4
2017-12-17T04:49:47.173Z,1006.4
2017-12-17T04:50:49.577Z,1006.4
2017-12-17T04:51:51.986Z,1006.4
2017-12-17T04:52:54.392Z,1006.5
2017-12-17T04:53:56.792Z,1006.4
2017-12-17T04:54:59.215Z,1006.5
2017-12-17T04:56:01.908Z,1006.5
2017-12-17T04:57:04.317Z,1006.6
2017-12-17T04:58:06.723Z,1006.5
2017-12-17T04:59:09.138Z,1006.5
2017-12-17T05:00:11.545Z,1006.6
2017-12-17T05:01:13.949Z,1006.6
2017-12-17T05:02:16.353Z,1006.6
2017-12-17T05:03:19.033Z,1006.6
2017-12-17T05:04:21.459Z,1006.7
2017-12-17T05:05:23.857Z,1006.7
2017-12-17T05:06:26.263Z,1006.7
2017-12-17T05:07:28.670Z,1006.7
2017-12-17T05:08:31.083Z,1006.8
2017-12-17T05:09:33.498Z,1006.7
2017-12-17T05:10:35.910Z,1006.8
2017-12-17T05:11:38.313Z,1006.8
2017-12-17T05:12:40.727Z,1006.8
2017-12-17T05:13:43.138Z,1006.8
2017-12-17T05:14:45.554Z,1006.8
2017-12-17T05:15:47.953Z,1006.8
2017-12-17T05:16:50.367Z,1006.9
2017-12-17T05:17:52.762Z,1006.9
2017-12-17T05:18:55.178Z,1006.9
2017-12-17T05:19:57.571Z,1007
2017-12-17T05:21:00.282Z,1007
2017-12-17T05:22:02.689Z,1006.9
2017-12-17T05:23:05.096Z,1007
2017-12-17T05:24:07.503Z,1007
2017-12-17T05:25:09.916Z,1007
2017-12-17T05:26:12.320Z,1007
2017-12-17T05:27:15.041Z,1007
2017-12-17T05:28:17.442Z,1007.1
2017-12-17T05:29:19.852Z,1007.1
2017-12-17T05:30:22.556Z,1007.1
2017-12-17T05:31:25.261Z,1007.1
2017-12-17T05:32:27.663Z,1007.1
2017-12-17T05:33:30.077Z,1007.1
2017-12-17T05:34:33.043Z,1007.1
2017-12-17T05:35:35.450Z,1007
2017-12-17T05:36:37.867Z,1007.2
2017-12-17T05:37:40.542Z,1007.2
2017-12-17T05:38:42.957Z,1007.2
2017-12-17T05:39:45.401Z,1007.2
2017-12-17T05:40:47.770Z,1007.1
2017-12-17T05:41:50.174Z,1007.2
2017-12-17T05:42:52.585Z,1007.2
2017-12-17T05:43:54.999Z,1007.3
2017-12-17T05:44:57.394Z,1007.2
2017-12-17T05:45:59.804Z,1007.2
2017-12-17T05:47:02.212Z,1007.2
2017-12-17T05:48:04.620Z,1007.3
2017-12-17T05:49:07.031Z,1007.2
2017-12-17T05:50:09.437Z,1007.2
2017-12-17T05:51:11.844Z,1007.2
2017-12-17T05:52:14.570Z,1007.3
2017-12-17T05:53:16.991Z,1007.4
2017-12-17T05:54:19.389Z,1007.3
2017-12-17T05:55:21.802Z,1007.3
2017-12-17T05:56:24.205Z,1007.4
2017-12-17T05:57:26.922Z,1007.4
2017-12-17T05:58:29.299Z,1007.4
2017-12-17T05:59:31.705Z,1007.5
2017-12-17T06:00:34.107Z,1007.4
2017-12-17T06:01:36.518Z,1007.5
2017-12-17T06:02:38.918Z,1007.5
2017-12-17T06:03:41.614Z,1007.5
2017-12-17T06:04:44.027Z,1007.5
2017-12-17T06:05:46.434Z,1007.5
2017-12-17T06:06:48.840Z,1007.5
2017-12-17T06:07:51.246Z,1007.5
2017-12-17T06:08:53.654Z,1007.5
2017-12-17T06:09:56.056Z,1007.5
2017-12-17T06:10:58.468Z,1007.5
2017-12-17T06:12:00.871Z,1007.5
2017-12-17T06:13:03.275Z,1007.5
2017-12-17T06:14:05.675Z,1007.5
2017-12-17T06:15:08.083Z,1007.5
2017-12-17T06:16:10.485Z,1007.6
2017-12-17T06:17:12.889Z,1007.6
2017-12-17T06:18:15.309Z,1007.6
2017-12-17T06:19:17.712Z,1007.6
2017-12-17T06:20:20.162Z,1007.6
2017-12-17T06:21:22.574Z,1007.7
2017-12-17T06:22:24.982Z,1007.7
2017-12-17T06:23:27.386Z,1007.6
2017-12-17T06:24:30.071Z,1007.7
2017-12-17T06:25:32.468Z,1007.8
2017-12-17T06:26:34.875Z,1007.8
2017-12-17T06:27:37.286Z,1007.8
2017-12-17T06:28:39.968Z,1007.8
2017-12-17T06:29:42.381Z,1007.8
2017-12-17T06:30:44.789Z,1007.8
2017-12-17T06:31:47.197Z,1007.8
2017-12-17T06:32:49.612Z,1007.9
2017-12-17T06:33:52.016Z,1007.9
2017-12-17T06:34:54.427Z,1007.9
2017-12-17T06:35:56.850Z,1007.9
2017-12-17T06:36:59.524Z,1007.9
2017-12-17T06:38:02.220Z,1008
2017-12-17T06:39:04.630Z,1008
2017-12-17T06:40:07.041Z,1008
2017-12-17T06:41:09.443Z,1008.1
2017-12-17T06:42:11.868Z,1008.1
2017-12-17T06:43:14.275Z,1008.1
2017-12-17T06:44:16.954Z,1008.2
2017-12-17T06:45:19.671Z,1008.1
2017-12-17T06:46:22.071Z,1008.2
2017-12-17T06:47:24.479Z,1008.1
2017-12-17T06:48:26.891Z,1008.1
2017-12-17T06:49:29.291Z,1008.2
2017-12-17T06:50:31.702Z,1008.2
2017-12-17T06:51:34.105Z,1008.2
2017-12-17T06:52:36.800Z,1008.2
2017-12-17T06:53:39.204Z,1008.3
2017-12-17T06:54:41.613Z,1008.3
2017-12-17T06:55:44.301Z,1008.3
2017-12-17T06:56:46.717Z,1008.3
2017-12-17T06:57:49.123Z,1008.4
2017-12-17T06:58:51.531Z,1008.3
2017-12-17T06:59:53.931Z,1008.3
2017-12-17T07:00:56.349Z,1008.4
2017-12-17T07:01:58.764Z,1008.4
2017-12-17T07:03:01.445Z,1008.4
2017-12-17T07:04:03.848Z,1008.5
2017-12-17T07:05:06.261Z,1008.5
2017-12-17T07:06:08.663Z,1008.5
2017-12-17T07:07:11.073Z,1008.5
2017-12-17T07:08:13.469Z,1008.5
2017-12-17T07:09:15.872Z,1008.5
2017-12-17T07:10:18.301Z,1008.6
2017-12-17T07:11:20.701Z,1008.6
2017-12-17T07:12:23.111Z,1008.6
2017-12-17T07:13:25.509Z,1008.7
2017-12-17T07:14:27.923Z,1008.7
2017-12-17T07:15:30.333Z,1008.7
2017-12-17T07:16:32.745Z,1008.6
2017-12-17T07:17:35.149Z,1008.6
2017-12-17T07:18:37.599Z,1008.6
2017-12-17T07:19:39.988Z,1008.7
2017-12-17T07:20:42.403Z,1008.7
2017-12-17T07:21:44.803Z,1008.7
2017-12-17T07:22:47.218Z,1008.7
2017-12-17T07:23:49.631Z,1008.7
2017-12-17T07:24:52.045Z,1008.7
2017-12-17T07:25:54.724Z,1008.8
2017-12-17T07:26:57.135Z,1008.8
2017-12-17T07:27:59.826Z,1008.8
2017-12-17T07:29:02.244Z,1008.9
2017-12-17T07:30:04.647Z,1008.9
2017-12-17T07:31:07.076Z,1008.9
2017-12-17T07:32:09.463Z,1008.9
2017-12-17T07:33:11.896Z,1008.9
2017-12-17T07:34:14.301Z,1008.9
2017-12-17T07:35:16.711Z,1008.9
2017-12-17T07:36:19.119Z,1008.9
2017-12-17T07:37:21.529Z,1009
2017-12-17T07:38:23.934Z,1009
2017-12-17T07:39:26.356Z,1009
2017-12-17T07:40:28.763Z,1009
2017-12-17T07:41:31.167Z,1009
2017-12-17T07:42:33.573Z,1009.1
2017-12-17T07:43:35.995Z,1009.1
2017-12-17T07:44:38.396Z,1009
2017-12-17T07:45:40.801Z,1009.1
2017-12-17T07:46:43.216Z,1009.2
2017-12-17T07:47:45.618Z,1009.2
2017-12-17T07:48:48.315Z,1009.2
2017-12-17T07:49:50.731Z,1009.2
2017-12-17T07:50:53.128Z,1009.2
2017-12-17T07:51:55.537Z,1009.3
2017-12-17T07:52:57.958Z,1009.3
2017-12-17T07:54:00.362Z,1009.3
2017-12-17T07:55:02.778Z,1009.4
2017-12-17T07:56:05.466Z,1009.3
2017-12-17T07:57:07.871Z,1009.4
2017-12-17T07:58:10.295Z,1009.4
2017-12-17T07:59:13.256Z,1009.5
2017-12-17T08:00:15.663Z,1009.5
2017-12-17T08:01:18.074Z,1009.5
2017-12-17T08:02:20.477Z,1009.5
2017-12-17T08:03:22.888Z,1009.5
2017-12-17T08:04:25.295Z,1009.5
2017-12-17T08:05:28.278Z,1009.6
2017-12-17T08:06:30.693Z,1009.6
2017-12-17T08:07:33.105Z,1009.6
2017-12-17T08:08:35.516Z,1009.7
2017-12-17T08:09:37.926Z,1009.6
2017-12-17T08:10:40.337Z,1009.6
2017-12-17T08:11:42.751Z,1009.7
2017-12-17T08:12:45.440Z,1009.7
2017-12-17T08:13:48.144Z,1009.7
2017-12-17T08:14:50.557Z,1009.8
2017-12-17T08:15:52.965Z,1009.8
2017-12-17T08:16:55.360Z,1009.9
2017-12-17T08:17:57.779Z,1009.8
2017-12-17T08:19:00.193Z,1009.9
2017-12-17T08:20:02.605Z,1009.8
2017-12-17T08:21:05.007Z,1009.9
2017-12-17T08:22:07.420Z,1009.9
2017-12-17T08:23:09.828Z,1009.9
2017-12-17T08:24:12.251Z,1010
2017-12-17T08:25:14.654Z,1009.9
2017-12-17T08:26:17.065Z,1010
2017-12-17T08:27:19.474Z,1010
2017-12-17T08:28:21.887Z,1010.1
2017-12-17T08:29:24.300Z,1010.1
2017-12-17T08:30:26.714Z,1010.1
2017-12-17T08:31:29.108Z,1010.1
2017-12-17T08:32:31.523Z,1010.1
2017-12-17T08:33:33.929Z,1010.1
2017-12-17T08:34:36.339Z,1010.1
2017-12-17T08:35:38.849Z,1010.1
2017-12-17T08:36:42.105Z,1010.2
2017-12-17T08:37:44.519Z,1010.2
2017-12-17T08:38:46.936Z,1010.2
2017-12-17T08:39:49.630Z,1010.2
2017-12-17T08:40:52.333Z,1010.3
2017-12-17T08:41:54.744Z,1010.3
2017-12-17T08:42:57.154Z,1010.3
2017-12-17T08:44:00.140Z,1010.4
2017-12-17T08:45:02.547Z,1010.4
2017-12-17T08:46:04.961Z,1010.4
2017-12-17T08:47:07.677Z,1010.4
2017-12-17T08:48:10.096Z,1010.4
2017-12-17T08:49:12.519Z,1010.4
2017-12-17T08:50:14.930Z,1010.4
2017-12-17T08:51:17.335Z,1010.4
2017-12-17T08:52:19.747Z,1010.5
2017-12-17T08:53:22.158Z,1010.5
2017-12-17T08:54:24.574Z,1010.5
2017-12-17T08:55:26.967Z,1010.5
2017-12-17T08:56:29.382Z,1010.6
2017-12-17T08:57:32.082Z,1010.5
2017-12-17T08:58:34.772Z,1010.6
2017-12-17T08:59:37.188Z,1010.6
2017-12-17T09:00:39.601Z,1010.6
2017-12-17T09:01:42.585Z,1010.6
2017-12-17T09:02:45.009Z,1010.6
2017-12-17T09:03:47.419Z,1010.6
2017-12-17T09:04:49.835Z,1010.7
2017-12-17T09:05:52.254Z,1010.7
2017-12-17T09:06:54.668Z,1010.7
2017-12-17T09:07:57.357Z,1010.7
2017-12-17T09:08:59.768Z,1010.7
2017-12-17T09:10:02.183Z,1010.8
2017-12-17T09:11:04.592Z,1010.8
2017-12-17T09:12:07.028Z,1010.8
2017-12-17T09:13:09.418Z,1010.8
2017-12-17T09:14:11.811Z,1010.8
2017-12-17T09:15:14.231Z,1010.8
2017-12-17T09:16:16.650Z,1010.8
2017-12-17T09:17:19.059Z,1010.8
2017-12-17T09:18:21.469Z,1010.8
2017-12-17T09:19:23.876Z,1010.8
2017-12-17T09:20:26.282Z,1010.9
2017-12-17T09:21:28.984Z,1010.9
2017-12-17T09:22:31.680Z,1010.9
2017-12-17T09:23:34.091Z,1010.9
2017-12-17T09:24:36.504Z,1010.9
2017-12-17T09:25:38.916Z,1010.9
2017-12-17T09:26:41.326Z,1010.9
2017-12-17T09:27:43.737Z,1011
2017-12-17T09:28:46.440Z,1010.9
2017-12-17T09:29:49.140Z,1011
2017-12-17T09:30:51.546Z,1011
2017-12-17T09:31:53.968Z,1010.9
2017-12-17T09:32:56.367Z,1011
2017-12-17T09:33:58.777Z,1011
2017-12-17T09:35:01.479Z,1011
2017-12-17T09:36:03.896Z,1011
2017-12-17T09:37:06.303Z,1011.1
2017-12-17T09:38:08.710Z,1011
2017-12-17T09:39:11.111Z,1011
2017-12-17T09:40:13.823Z,1011.1
2017-12-17T09:41:16.235Z,1011
2017-12-17T09:42:18.648Z,1011.1
2017-12-17T09:43:21.062Z,1011.1
2017-12-17T09:44:23.477Z,1011.1
2017-12-17T09:45:25.890Z,1011.1
2017-12-17T09:46:28.305Z,1011.1
2017-12-17T09:47:30.705Z,1011.1
2017-12-17T09:48:33.106Z,1011.1
2017-12-17T09:49:35.520Z,1011.2
2017-12-17T09:50:37.932Z,1011.2
2017-12-17T09:51:40.340Z,1011.2
2017-12-17T09:52:42.752Z,1011.2
2017-12-17T09:53:45.155Z,1011.2
2017-12-17T09:54:47.575Z,1011.2
2017-12-17T09:55:50.284Z,1011.2
2017-12-17T09:56:52.690Z,1011.2
2017-12-17T09:57:55.102Z,1011.2
2017-12-17T09:58:57.520Z,1011.3
2017-12-17T09:59:59.935Z,1011.3
2017-12-17T10:01:02.361Z,1011.3
2017-12-17T10:02:04.760Z,1011.3
2017-12-17T10:03:07.177Z,1011.3
2017-12-17T10:04:09.596Z,1011.3
2017-12-17T10:05:12.011Z,1011.3
2017-12-17T10:06:14.423Z,1011.3
2017-12-17T10:07:16.835Z,1011.3
2017-12-17T10:08:19.238Z,1011.4
2017-12-17T10:09:21.647Z,1011.4
2017-12-17T10:10:24.625Z,1011.4
2017-12-17T10:11:27.041Z,1011.4
2017-12-17T10:12:29.754Z,1011.5
2017-12-17T10:13:32.154Z,1011.5
2017-12-17T10:14:34.570Z,1011.5
2017-12-17T10:15:37.266Z,1011.5
2017-12-17T10:16:39.692Z,1011.5
2017-12-17T10:17:42.099Z,1011.5
2017-12-17T10:18:44.514Z,1011.5
2017-12-17T10:19:46.915Z,1011.5
2017-12-17T10:20:49.617Z,1011.5
2017-12-17T10:21:52.033Z,1011.5
2017-12-17T10:22:54.728Z,1011.6
2017-12-17T10:23:57.143Z,1011.5
2017-12-17T10:24:59.553Z,1011.6
2017-12-17T10:26:01.978Z,1011.6
2017-12-17T10:27:04.396Z,1011.6
2017-12-17T10:28:06.802Z,1011.6
2017-12-17T10:29:09.220Z,1011.5
2017-12-17T10:30:11.639Z,1011.6
2017-12-17T10:31:14.060Z,1011.6
2017-12-17T10:32:16.469Z,1011.6
2017-12-17T10:33:19.169Z,1011.6
2017-12-17T10:34:21.572Z,1011.6
2017-12-17T10:35:23.998Z,1011.6
2017-12-17T10:36:26.412Z,1011.6
2017-12-17T10:37:29.099Z,1011.6
2017-12-17T10:38:31.824Z,1011.6
2017-12-17T10:39:34.516Z,1011.6
2017-12-17T10:40:37.211Z,1011.7
2017-12-17T10:41:39.628Z,1011.6
2017-12-17T10:42:42.042Z,1011.6
2017-12-17T10:43:44.452Z,1011.6
2017-12-17T10:44:46.854Z,1011.6
2017-12-17T10:45:49.264Z,1011.6
2017-12-17T10:46:51.677Z,1011.6
2017-12-17T10:47:54.368Z,1011.6
2017-12-17T10:48:56.784Z,1011.7
2017-12-17T10:49:59.191Z,1011.7
2017-12-17T10:51:01.900Z,1011.6
2017-12-17T10:52:04.318Z,1011.7
2017-12-17T10:53:07.039Z,1011.6
2017-12-17T10:54:09.740Z,1011.7
2017-12-17T10:55:12.164Z,1011.6
2017-12-17T10:56:14.576Z,1011.6
2017-12-17T10:57:17.000Z,1011.6
2017-12-17T10:58:19.413Z,1011.6
2017-12-17T10:59:21.812Z,1011.7
2017-12-17T11:00:24.232Z,1011.6
2017-12-17T11:01:26.637Z,1011.7
2017-12-17T11:02:29.620Z,1011.7
2017-12-17T11:03:32.019Z,1011.7
2017-12-17T11:04:34.428Z,1011.7
2017-12-17T11:05:37.048Z,1011.7
2017-12-17T11:06:39.463Z,1011.7
2017-12-17T11:07:41.881Z,1011.7
2017-12-17T11:08:44.585Z,1011.7
2017-12-17T11:09:47.006Z,1011.7
2017-12-17T11:10:49.419Z,1011.7
2017-12-17T11:11:51.831Z,1011.8
2017-12-17T11:12:54.250Z,1011.8
2017-12-17T11:13:56.944Z,1011.7
2017-12-17T11:14:59.348Z,1011.8
2017-12-17T11:16:01.764Z,1011.8
2017-12-17T11:17:04.172Z,1011.8
2017-12-17T11:18:06.591Z,1011.8
2017-12-17T11:19:09.000Z,1011.8
2017-12-17T11:20:11.419Z,1011.8
2017-12-17T11:21:14.122Z,1011.7
2017-12-17T11:22:16.533Z,1011.7
2017-12-17T11:23:18.936Z,1011.7
2017-12-17T11:24:21.353Z,1011.7
2017-12-17T11:25:23.763Z,1011.8
2017-12-17T11:26:26.182Z,1011.7
2017-12-17T11:27:28.638Z,1011.8
2017-12-17T11:28:31.330Z,1011.8
2017-12-17T11:29:33.744Z,1011.7
2017-12-17T11:30:36.444Z,1011.7
2017-12-17T11:31:39.072Z,1011.7
2017-12-17T11:32:41.488Z,1011.7
2017-12-17T11:33:43.898Z,1011.7
2017-12-17T11:34:46.324Z,1011.8
2017-12-17T11:35:48.740Z,1011.7
2017-12-17T11:36:51.139Z,1011.7
2017-12-17T11:37:53.558Z,1011.7
2017-12-17T11:38:55.964Z,1011.8
2017-12-17T11:39:58.365Z,1011.7
2017-12-17T11:41:00.775Z,1011.7
2017-12-17T11:42:03.489Z,1011.7
2017-12-17T11:43:05.898Z,1011.8
2017-12-17T11:44:08.299Z,1011.8
2017-12-17T11:45:10.713Z,1011.8
2017-12-17T11:46:13.124Z,1011.8
2017-12-17T11:47:15.545Z,1011.8
2017-12-17T11:48:18.010Z,1011.8
2017-12-17T11:49:20.362Z,1011.8
2017-12-17T11:50:22.775Z,1011.8
2017-12-17T11:51:25.198Z,1011.8
2017-12-17T11:52:27.607Z,1011.7
2017-12-17T11:53:30.018Z,1011.8
2017-12-17T11:54:32.424Z,1011.7
2017-12-17T11:55:34.836Z,1011.7
2017-12-17T11:56:37.254Z,1011.8
2017-12-17T11:57:39.661Z,1011.7
2017-12-17T11:58:42.068Z,1011.8
2017-12-17T11:59:44.767Z,1011.8
2017-12-17T12:00:47.172Z,1011.8
2017-12-17T12:01:49.592Z,1011.8
2017-12-17T12:02:52.019Z,1011.8
2017-12-17T12:03:54.419Z,1011.8
2017-12-17T12:04:56.839Z,1011.8
2017-12-17T12:05:59.252Z,1011.8
2017-12-17T12:07:01.678Z,1011.8
2017-12-17T12:08:04.075Z,1011.8
2017-12-17T12:09:06.496Z,1011.8
2017-12-17T12:10:08.907Z,1011.8
2017-12-17T12:11:11.312Z,1011.8
2017-12-17T12:12:13.737Z,1011.8
2017-12-17T12:13:16.152Z,1011.8
2017-12-17T12:14:18.851Z,1011.8
2017-12-17T12:15:21.278Z,1011.8
2017-12-17T12:16:23.699Z,1011.8
2017-12-17T12:17:26.117Z,1011.8
2017-12-17T12:18:28.532Z,1011.8
2017-12-17T12:19:30.942Z,1011.8
2017-12-17T12:20:33.358Z,1011.8
2017-12-17T12:21:35.779Z,1011.8
2017-12-17T12:22:38.472Z,1011.8
2017-12-17T12:23:40.886Z,1011.8
2017-12-17T12:24:43.303Z,1011.8
2017-12-17T12:25:46.001Z,1011.8
2017-12-17T12:26:48.402Z,1011.8
2017-12-17T12:27:51.103Z,1011.8
2017-12-17T12:28:53.828Z,1011.9
2017-12-17T12:29:56.238Z,1011.9
2017-12-17T12:30:58.649Z,1011.9
2017-12-17T12:32:01.344Z,1012
2017-12-17T12:33:04.113Z,1011.9
2017-12-17T12:34:06.541Z,1011.9
2017-12-17T12:35:08.945Z,1011.9
2017-12-17T12:36:11.361Z,1011.9
2017-12-17T12:37:13.778Z,1011.9
2017-12-17T12:38:16.480Z,1011.9
2017-12-17T12:39:18.891Z,1011.9
2017-12-17T12:40:21.312Z,1011.9
2017-12-17T12:41:23.731Z,1012
2017-12-17T12:42:26.150Z,1012
2017-12-17T12:43:28.566Z,1012
2017-12-17T12:44:30.982Z,1012
2017-12-17T12:45:33.396Z,1012
2017-12-17T12:46:35.811Z,1011.9
2017-12-17T12:47:38.521Z,1012
2017-12-17T12:48:40.938Z,1012
2017-12-17T12:49:43.341Z,1012.1
2017-12-17T12:50:45.759Z,1012
2017-12-17T12:51:48.160Z,1012
2017-12-17T12:52:50.574Z,1012.1
2017-12-17T12:53:52.992Z,1012
2017-12-17T12:54:55.412Z,1012
2017-12-17T12:55:57.836Z,1012
2017-12-17T12:57:00.259Z,1012.1
2017-12-17T12:58:02.695Z,1012.1
2017-12-17T12:59:05.090Z,1012
2017-12-17T13:00:07.489Z,1012.1
2017-12-17T13:01:09.901Z,1012.1
2017-12-17T13:02:12.319Z,1012.1
2017-12-17T13:03:15.022Z,1012.1